Time;durP1;ratioP1;P1;durP2;ratioP2;P2;SDS_P1;SDS_P2;PMS_P1;PMS_P2;Temp;Humidity;BMP_temperature;BMP_pressure;BME280_temperature;BME280_humidity;BME280_pressure;Samples;Min_cycle;Max_cycle;Signal;HPM_P1;HPM_P2
2022/03/17 00:00:02;;;;;;;48.92;24.52;;;;;;;-148.23;100.00;61223.13;4981833;28;20034;-69
2022/03/17 00:02:27;;;;;;;50.17;25.80;;;;;;;-148.23;100.00;61223.13;4985946;28;20543;-68
2022/03/17 00:04:52;;;;;;;47.67;24.27;;;;;;;-148.23;100.00;61223.13;4969629;28;20042;-68
2022/03/17 00:07:18;;;;;;;50.42;24.52;;;;;;;-148.23;100.00;61223.13;4986534;28;20103;-68
2022/03/17 00:09:43;;;;;;;47.67;25.23;;;;;;;-148.23;100.00;61223.13;4985257;28;20580;-68
2022/03/17 00:12:09;;;;;;;47.20;22.42;;;;;;;-148.23;100.00;61223.13;4984258;28;20022;-68
2022/03/17 00:14:35;;;;;;;50.97;28.27;;;;;;;-148.23;100.00;61223.13;4985342;28;20064;-68
2022/03/17 00:17:00;;;;;;;47.60;23.15;;;;;;;-148.23;100.00;61223.13;4989085;28;20100;-68
2022/03/17 00:19:26;;;;;;;51.63;25.90;;;;;;;-148.23;100.00;61223.13;4963501;28;20034;-68
2022/03/17 00:21:51;;;;;;;50.75;23.80;;;;;;;-148.23;100.00;61223.13;4985776;28;20026;-68
2022/03/17 00:24:17;;;;;;;52.20;27.50;;;;;;;-148.23;100.00;61223.13;4964818;28;20032;-68
2022/03/17 00:26:42;;;;;;;53.00;29.63;;;;;;;-148.23;100.00;61223.13;4985782;28;20030;-68
2022/03/17 00:29:08;;;;;;;48.42;25.13;;;;;;;-148.23;100.00;61223.13;4983142;28;20043;-68
2022/03/17 00:31:37;;;;;;;53.40;28.65;;;;;;;-148.23;100.00;61223.13;4984247;28;20370;-68
2022/03/17 00:34:06;;;;;;;50.38;31.80;;;;;;;-148.23;100.00;61223.13;4983365;28;20112;-68
2022/03/17 00:36:34;;;;;;;55.28;25.38;;;;;;;-148.23;100.00;61223.13;4986894;28;20041;-68
2022/03/17 00:38:59;;;;;;;54.15;31.42;;;;;;;-148.23;100.00;61223.13;4977789;28;20381;-68
2022/03/17 00:41:25;;;;;;;53.03;27.70;;;;;;;-148.23;100.00;61223.13;4977476;28;20037;-69
2022/03/17 00:43:50;;;;;;;53.33;27.23;;;;;;;-148.23;100.00;61223.13;4983062;28;20030;-68
2022/03/17 00:46:15;;;;;;;57.03;29.52;;;;;;;-148.23;100.00;61223.13;4994547;28;20045;-68
2022/03/17 00:48:41;;;;;;;50.05;25.73;;;;;;;-148.23;100.00;61223.13;4981149;28;20038;-68
2022/03/17 00:51:06;;;;;;;52.10;25.27;;;;;;;-148.23;100.00;61223.13;4979447;28;20037;-68
2022/03/17 00:53:31;;;;;;;50.55;26.23;;;;;;;-148.23;100.00;61223.13;4985812;28;20120;-69
2022/03/17 00:55:57;;;;;;;46.58;21.65;;;;;;;-148.23;100.00;61223.13;4985619;28;20080;-68
2022/03/17 00:58:22;;;;;;;47.03;23.83;;;;;;;-148.23;100.00;61223.13;4982577;28;20042;-68
2022/03/17 01:00:48;;;;;;;43.35;20.42;;;;;;;-148.23;100.00;61223.13;4987699;28;20373;-68
2022/03/17 01:03:13;;;;;;;49.97;24.83;;;;;;;-148.23;100.00;61223.13;4984840;28;20404;-68
2022/03/17 01:05:41;;;;;;;53.75;27.67;;;;;;;-148.23;100.00;61223.13;4983912;28;20034;-68
2022/03/17 01:08:07;;;;;;;53.35;29.02;;;;;;;-148.23;100.00;61223.13;4983521;28;20532;-68
2022/03/17 01:10:32;;;;;;;52.47;27.65;;;;;;;-148.23;100.00;61223.13;4980697;28;20099;-68
2022/03/17 01:12:57;;;;;;;51.85;25.88;;;;;;;-148.23;100.00;61223.13;4983842;28;20492;-69
2022/03/17 01:15:23;;;;;;;45.75;22.95;;;;;;;-148.23;100.00;61223.13;4984065;28;20054;-68
2022/03/17 01:17:49;;;;;;;54.05;23.30;;;;;;;-148.23;100.00;61223.13;4967427;28;20060;-68
2022/03/17 01:20:14;;;;;;;54.40;26.42;;;;;;;-148.23;100.00;61223.13;4978907;28;20046;-69
2022/03/17 01:22:39;;;;;;;55.15;26.40;;;;;;;-148.23;100.00;61223.13;4980601;28;20111;-68
2022/03/17 01:25:05;;;;;;;64.18;30.52;;;;;;;-148.23;100.00;61223.13;4978683;28;20117;-68
2022/03/17 01:27:31;;;;;;;52.55;25.10;;;;;;;-148.23;100.00;61223.13;4978730;28;20113;-69
2022/03/17 01:29:56;;;;;;;55.72;30.50;;;;;;;-148.23;100.00;61223.13;4975654;28;20118;-69
2022/03/17 01:32:22;;;;;;;50.72;29.30;;;;;;;-148.23;100.00;61223.13;4976672;28;20477;-69
2022/03/17 01:34:48;;;;;;;56.33;28.00;;;;;;;-148.23;100.00;61223.13;4976807;28;20714;-68
2022/03/17 01:37:14;;;;;;;49.17;27.27;;;;;;;-148.23;100.00;61223.13;4980101;28;20050;-68
2022/03/17 01:39:40;;;;;;;56.22;28.75;;;;;;;-148.23;100.00;61223.13;4974851;28;20027;-69
2022/03/17 01:42:07;;;;;;;60.50;33.13;;;;;;;-148.23;100.00;61223.13;4983062;28;20041;-68
2022/03/17 01:44:33;;;;;;;56.55;31.92;;;;;;;-148.23;100.00;61223.13;4977448;28;20377;-68
2022/03/17 01:49:42;;;;;;;49.22;25.17;;;;;;;-148.23;100.00;61223.13;4977489;28;20037;-68
2022/03/17 01:52:08;;;;;;;50.90;22.55;;;;;;;-148.23;100.00;61223.13;4977210;28;20046;-68
2022/03/17 01:54:34;;;;;;;58.25;26.85;;;;;;;-148.23;100.00;61223.13;4978717;28;20436;-68
2022/03/17 01:57:00;;;;;;;52.78;25.95;;;;;;;-148.23;100.00;61223.13;4977150;28;20030;-69
2022/03/17 01:59:26;;;;;;;53.72;27.58;;;;;;;-148.23;100.00;61223.13;4977834;28;20038;-68
2022/03/17 02:01:53;;;;;;;59.15;26.88;;;;;;;-148.23;100.00;61223.13;4977696;28;20353;-68
2022/03/17 02:04:18;;;;;;;53.25;24.48;;;;;;;-148.23;100.00;61223.13;4979167;28;20314;-68
2022/03/17 02:06:44;;;;;;;44.15;20.67;;;;;;;-148.23;100.00;61223.13;4978469;28;20431;-68
2022/03/17 02:09:09;;;;;;;56.75;34.20;;;;;;;-148.23;100.00;61223.13;4979805;28;20093;-68
2022/03/17 02:14:25;;;;;;;56.05;28.75;;;;;;;-148.23;100.00;61223.13;4975216;28;20049;-69
2022/03/17 02:16:51;;;;;;;52.10;28.25;;;;;;;-148.23;100.00;61223.13;4980155;28;20181;-69
2022/03/17 02:19:23;;;;;;;52.40;23.67;;;;;;;-148.23;100.00;61223.13;4979080;28;20037;-68
2022/03/17 02:21:49;;;;;;;53.38;30.55;;;;;;;-148.23;100.00;61223.13;4977680;28;20125;-68
2022/03/17 02:27:01;;;;;;;56.25;26.35;;;;;;;-148.23;100.00;61223.13;4976197;28;20041;-68
2022/03/17 02:29:26;;;;;;;52.45;29.67;;;;;;;-148.23;100.00;61223.13;4978113;28;20030;-69
2022/03/17 02:31:52;;;;;;;62.15;30.90;;;;;;;-148.23;100.00;61223.13;4977165;28;20030;-68
2022/03/17 02:34:18;;;;;;;47.95;21.67;;;;;;;-148.23;100.00;61223.13;4976791;28;20054;-69
2022/03/17 02:36:48;;;;;;;48.92;22.73;;;;;;;-148.23;100.00;61223.13;4980059;28;20121;-68
2022/03/17 02:39:18;;;;;;;56.60;28.30;;;;;;;-148.23;100.00;61223.13;4958536;28;20042;-69
2022/03/17 02:41:43;;;;;;;54.00;29.23;;;;;;;-148.23;100.00;61223.13;4970200;28;20035;-68
2022/03/17 02:44:10;;;;;;;50.15;25.08;;;;;;;-148.23;100.00;61223.13;4974340;28;20042;-68
2022/03/17 02:46:35;;;;;;;49.47;22.75;;;;;;;-148.23;100.00;61223.13;4963800;28;20404;-68
2022/03/17 02:49:00;;;;;;;54.75;33.38;;;;;;;-148.23;100.00;61223.13;4973594;28;20039;-69
2022/03/17 02:51:26;;;;;;;56.83;25.25;;;;;;;-148.23;100.00;61223.13;4961253;28;20516;-68
2022/03/17 02:53:51;;;;;;;61.50;25.30;;;;;;;-148.23;100.00;61223.13;4973276;28;20041;-68
2022/03/17 02:56:16;;;;;;;48.78;22.52;;;;;;;-148.23;100.00;61223.13;4976449;28;20720;-68
2022/03/17 02:58:42;;;;;;;48.40;22.20;;;;;;;-148.23;100.00;61223.13;4975068;28;20064;-68
2022/03/17 03:01:07;;;;;;;55.42;27.05;;;;;;;-148.23;100.00;61223.13;4976245;28;20039;-68
2022/03/17 03:03:32;;;;;;;50.63;24.63;;;;;;;-148.23;100.00;61223.13;4981186;28;20117;-68
2022/03/17 03:05:57;;;;;;;60.70;32.13;;;;;;;-148.23;100.00;61223.13;4981974;28;20038;-68
2022/03/17 03:08:24;;;;;;;49.92;26.00;;;;;;;-148.23;100.00;61223.13;4977886;28;20034;-69
2022/03/17 03:10:49;;;;;;;49.15;21.08;;;;;;;-148.23;100.00;61223.13;4976466;28;20026;-68
2022/03/17 03:13:14;;;;;;;59.47;26.20;;;;;;;-148.23;100.00;61223.13;4978243;28;20037;-68
2022/03/17 03:15:40;;;;;;;57.05;30.90;;;;;;;-148.23;100.00;61223.13;4981473;28;20058;-69
2022/03/17 03:18:05;;;;;;;69.18;30.90;;;;;;;-148.23;100.00;61223.13;4978549;28;20483;-69
2022/03/17 03:20:31;;;;;;;66.60;31.15;;;;;;;-148.23;100.00;61223.13;4972444;28;20041;-68
2022/03/17 03:22:57;;;;;;;57.88;26.38;;;;;;;-148.23;100.00;61223.13;4977841;28;20436;-69
2022/03/17 03:25:22;;;;;;;62.85;27.25;;;;;;;-148.23;100.00;61223.13;4979737;28;20061;-68
2022/03/17 03:27:48;;;;;;;72.00;33.03;;;;;;;-148.23;100.00;61223.13;4981973;28;20041;-68
2022/03/17 03:30:13;;;;;;;74.03;29.52;;;;;;;-148.23;100.00;61223.13;4978791;28;20027;-69
2022/03/17 03:32:47;;;;;;;68.40;30.45;;;;;;;-148.23;100.00;61223.13;4980560;28;20037;-69
2022/03/17 03:37:57;;;;;;;;;;;;;;;-148.23;100.00;61223.13;4981159;28;20045;-68
2022/03/17 03:40:23;;;;;;;35.47;16.08;;;;;;;-148.23;100.00;61223.13;4978358;28;19918;-67
2022/03/17 03:42:48;;;;;;;31.92;14.63;;;;;;;-148.23;100.00;61223.13;4975684;28;20030;-67
2022/03/17 03:45:13;;;;;;;29.58;14.07;;;;;;;-148.23;100.00;61223.13;4979980;28;20067;-68
2022/03/17 03:47:39;;;;;;;24.38;13.07;;;;;;;-148.23;100.00;61223.13;4981604;28;20201;-68
2022/03/17 03:50:04;;;;;;;25.20;12.82;;;;;;;-148.23;100.00;61223.13;4976879;28;20465;-67
2022/03/17 03:52:30;;;;;;;25.88;12.98;;;;;;;-148.23;100.00;61223.13;4973440;28;20042;-67
2022/03/17 03:54:55;;;;;;;29.35;16.42;;;;;;;-148.23;100.00;61223.13;4977170;28;20108;-67
2022/03/17 03:57:20;;;;;;;30.27;14.48;;;;;;;-148.23;100.00;61223.13;4974162;28;20081;-68
2022/03/17 03:59:46;;;;;;;30.52;15.05;;;;;;;-148.23;100.00;61223.13;4978093;28;20040;-68
2022/03/17 04:02:11;;;;;;;27.65;14.13;;;;;;;-148.23;100.00;61223.13;4974639;28;20503;-68
2022/03/17 04:04:40;;;;;;;34.55;15.80;;;;;;;-148.23;100.00;61223.13;4980458;28;20433;-68
2022/03/17 04:07:06;;;;;;;25.65;14.25;;;;;;;-148.23;100.00;61223.13;4975585;28;20445;-67
2022/03/17 04:09:34;;;;;;;36.13;18.90;;;;;;;-148.23;100.00;61223.13;4978265;28;20073;-68
2022/03/17 04:12:00;;;;;;;14.88;7.90;;;;;;;-148.23;100.00;61223.13;4962030;28;20385;-67
2022/03/17 04:14:26;;;;;;;16.40;9.35;;;;;;;-148.23;100.00;61223.13;4975913;28;20278;-68
2022/03/17 04:16:52;;;;;;;11.95;7.13;;;;;;;-148.23;100.00;61223.13;4982323;28;20425;-68
2022/03/17 04:19:17;;;;;;;11.88;5.90;;;;;;;-148.23;100.00;61223.13;4977697;28;20114;-67
2022/03/17 04:21:47;;;;;;;10.70;5.82;;;;;;;-148.23;100.00;61223.13;4976502;28;20472;-67
2022/03/17 04:24:13;;;;;;;10.55;7.30;;;;;;;-148.23;100.00;61223.13;4978179;28;20420;-68
2022/03/17 04:26:38;;;;;;;10.80;5.45;;;;;;;-148.23;100.00;61223.13;4975137;28;20094;-68
2022/03/17 04:29:04;;;;;;;13.43;8.75;;;;;;;-148.23;100.00;61223.13;4963074;28;20030;-67
2022/03/17 04:31:29;;;;;;;14.60;7.53;;;;;;;-148.23;100.00;61223.13;4988727;28;20038;-67
2022/03/17 04:33:55;;;;;;;18.08;8.18;;;;;;;-148.23;100.00;61223.13;4967233;28;20341;-67
2022/03/17 04:36:20;;;;;;;16.50;8.60;;;;;;;-148.23;100.00;61223.13;4988056;28;20069;-68
2022/03/17 04:38:46;;;;;;;16.35;8.18;;;;;;;-148.23;100.00;61223.13;4976162;28;20033;-68
2022/03/17 04:41:11;;;;;;;25.88;9.23;;;;;;;-148.23;100.00;61223.13;4979959;28;20034;-67
2022/03/17 04:43:37;;;;;;;23.02;9.63;;;;;;;-148.23;100.00;61223.13;4968086;28;20022;-68
2022/03/17 04:46:03;;;;;;;26.55;12.88;;;;;;;-148.23;100.00;61223.13;4985349;28;20041;-69
2022/03/17 04:48:28;;;;;;;26.00;8.80;;;;;;;-148.23;100.00;61223.13;4979201;28;20039;-68
2022/03/17 04:50:54;;;;;;;22.05;9.35;;;;;;;-148.23;100.00;61223.13;4978889;28;20717;-68
2022/03/17 04:53:30;;;;;;;24.13;10.70;;;;;;;-148.23;100.00;61223.13;4978612;28;20026;-68
2022/03/17 04:55:57;;;;;;;19.42;10.10;;;;;;;-148.23;100.00;61223.13;4975358;28;20304;-68
2022/03/17 04:58:22;;;;;;;21.13;10.23;;;;;;;-148.23;100.00;61223.13;4975885;28;20097;-67
2022/03/17 05:00:48;;;;;;;19.58;10.05;;;;;;;-148.23;100.00;61223.13;4981313;28;20090;-68
2022/03/17 05:03:14;;;;;;;25.25;11.23;;;;;;;-148.23;100.00;61223.13;4976636;28;20043;-68
2022/03/17 05:05:40;;;;;;;35.47;14.85;;;;;;;-148.23;100.00;61223.13;4979536;28;20031;-68
2022/03/17 05:08:06;;;;;;;31.25;15.18;;;;;;;-148.23;100.00;61223.13;4966145;28;20073;-68
2022/03/17 05:10:35;;;;;;;39.97;18.83;;;;;;;-148.23;100.00;61223.13;4981637;28;20081;-69
2022/03/17 05:13:06;;;;;;;37.33;17.02;;;;;;;-148.23;100.00;61223.13;4978045;28;20089;-68
2022/03/17 05:15:32;;;;;;;37.63;17.25;;;;;;;-148.23;100.00;61223.13;4983255;28;20301;-68
2022/03/17 05:17:57;;;;;;;38.80;18.30;;;;;;;-148.23;100.00;61223.13;4975309;28;20030;-68
2022/03/17 05:20:22;;;;;;;27.65;12.98;;;;;;;-148.23;100.00;61223.13;4974088;28;20411;-68
2022/03/17 05:22:48;;;;;;;40.30;13.35;;;;;;;-148.23;100.00;61223.13;4963653;28;20082;-67
2022/03/17 05:25:14;;;;;;;35.78;13.43;;;;;;;-148.23;100.00;61223.13;4983087;28;20113;-67
2022/03/17 05:27:41;;;;;;;31.63;12.27;;;;;;;-148.23;100.00;61223.13;4986518;28;20511;-67
2022/03/17 05:30:09;;;;;;;39.08;14.88;;;;;;;-148.23;100.00;61223.13;4970782;28;20026;-68
2022/03/17 05:32:34;;;;;;;28.65;12.98;;;;;;;-148.23;100.00;61223.13;4967735;28;20030;-67
2022/03/17 05:34:59;;;;;;;27.50;11.43;;;;;;;-148.23;100.00;61223.13;4980089;28;20030;-68
2022/03/17 05:37:25;;;;;;;25.60;8.20;;;;;;;-148.23;100.00;61223.13;4983632;28;20076;-68
2022/03/17 05:39:51;;;;;;;28.10;8.35;;;;;;;-148.23;100.00;61223.13;4984535;28;20027;-68
2022/03/17 05:42:17;;;;;;;21.95;8.85;;;;;;;-148.23;100.00;61223.13;4971125;28;20101;-67
2022/03/17 05:44:42;;;;;;;15.52;5.70;;;;;;;-148.23;100.00;61223.13;4984329;28;20034;-67
2022/03/17 05:47:08;;;;;;;17.23;6.03;;;;;;;-148.23;100.00;61223.13;4978901;28;20027;-68
2022/03/17 05:49:33;;;;;;;11.13;5.90;;;;;;;-148.23;100.00;61223.13;4978768;28;20027;-67
2022/03/17 05:51:59;;;;;;;20.35;6.15;;;;;;;-148.23;100.00;61223.13;4981753;28;20030;-67
2022/03/17 05:54:24;;;;;;;17.17;5.60;;;;;;;-148.23;100.00;61223.13;4981013;28;20101;-68
2022/03/17 05:56:50;;;;;;;16.90;5.90;;;;;;;-148.23;100.00;61223.13;4978401;28;20034;-68
2022/03/17 05:59:15;;;;;;;15.02;4.53;;;;;;;-148.23;100.00;61223.13;4984689;28;20026;-68
2022/03/17 06:01:40;;;;;;;10.88;4.80;;;;;;;-148.23;100.00;61223.13;4982347;28;20186;-68
2022/03/17 06:04:05;;;;;;;19.27;5.75;;;;;;;-148.23;100.00;61223.13;4977481;28;20030;-68
2022/03/17 06:06:31;;;;;;;21.77;6.45;;;;;;;-148.23;100.00;61223.13;4979769;28;20654;-68
2022/03/17 06:08:56;;;;;;;18.20;7.95;;;;;;;-148.23;100.00;61223.13;4975949;28;20027;-68
2022/03/17 06:11:22;;;;;;;17.52;7.45;;;;;;;-148.23;100.00;61223.13;4981047;28;20488;-67
2022/03/17 06:13:48;;;;;;;24.20;7.38;;;;;;;-148.23;100.00;61223.13;4974434;28;20042;-68
2022/03/17 06:16:13;;;;;;;32.35;13.98;;;;;;;-148.23;100.00;61223.13;4973906;28;20110;-67
2022/03/17 06:18:40;;;;;;;19.60;5.10;;;;;;;-148.23;100.00;61223.13;4974840;28;20026;-68
2022/03/17 06:21:05;;;;;;;15.75;5.10;;;;;;;-148.23;100.00;61223.13;4975896;28;20041;-68
2022/03/17 06:23:31;;;;;;;13.75;4.43;;;;;;;-148.23;100.00;61223.13;4972771;28;20034;-67
2022/03/17 06:25:56;;;;;;;14.73;5.80;;;;;;;-148.23;100.00;61223.13;4974899;28;20030;-66
2022/03/17 06:28:21;;;;;;;18.45;7.78;;;;;;;-148.23;100.00;61223.13;4974076;28;20141;-65
2022/03/17 06:30:47;;;;;;;14.20;6.35;;;;;;;-148.23;100.00;61223.13;4977078;28;20636;-67
2022/03/17 06:33:13;;;;;;;10.60;5.10;;;;;;;-148.23;100.00;61223.13;4980654;28;20081;-67
2022/03/17 06:35:39;;;;;;;11.70;3.13;;;;;;;-148.23;100.00;61223.13;4976137;28;20066;-67
2022/03/17 06:38:05;;;;;;;14.02;3.53;;;;;;;-148.23;100.00;61223.13;4983722;28;20092;-68
2022/03/17 06:40:31;;;;;;;14.18;3.85;;;;;;;-148.23;100.00;61223.13;4982809;28;20033;-66
2022/03/17 06:42:56;;;;;;;11.50;4.45;;;;;;;-148.23;100.00;61223.13;4977464;28;20027;-67
2022/03/17 06:45:23;;;;;;;14.60;4.82;;;;;;;-148.23;100.00;61223.13;4978575;28;20031;-67
2022/03/17 06:47:48;;;;;;;10.50;4.60;;;;;;;-148.23;100.00;61223.13;4981360;28;20660;-68
2022/03/17 06:50:15;;;;;;;9.30;3.42;;;;;;;-148.23;100.00;61223.13;4978324;28;20343;-68
2022/03/17 06:52:41;;;;;;;8.15;3.75;;;;;;;-148.23;100.00;61223.13;4978095;28;20473;-66
2022/03/17 06:55:06;;;;;;;11.27;3.13;;;;;;;-148.23;100.00;61223.13;4978059;28;20030;-67
2022/03/17 06:57:32;;;;;;;10.52;3.53;;;;;;;-148.23;100.00;61223.13;4973036;28;20084;-67
2022/03/17 06:59:57;;;;;;;13.73;3.65;;;;;;;-148.23;100.00;61223.13;4977586;28;20105;-67
2022/03/17 07:02:22;;;;;;;14.77;3.10;;;;;;;-148.23;100.00;61223.13;4960162;28;20065;-68
2022/03/17 07:04:48;;;;;;;10.32;2.72;;;;;;;-148.23;100.00;61223.13;4976567;28;20610;-67
2022/03/17 07:07:13;;;;;;;8.43;2.50;;;;;;;-148.23;100.00;61223.13;4981423;28;20476;-67
2022/03/17 07:09:41;;;;;;;11.30;3.17;;;;;;;-148.23;100.00;61223.13;4977641;28;20133;-67
2022/03/17 07:12:07;;;;;;;10.98;3.17;;;;;;;-148.23;100.00;61223.13;4976204;28;20026;-67
2022/03/17 07:14:32;;;;;;;12.38;3.33;;;;;;;-148.23;100.00;61223.13;4970837;28;20084;-67
2022/03/17 07:16:57;;;;;;;6.80;2.70;;;;;;;-148.23;100.00;61223.13;4960039;28;20039;-67
2022/03/17 07:19:22;;;;;;;10.95;2.72;;;;;;;-148.23;100.00;61223.13;4977774;28;20041;-67
2022/03/17 07:21:48;;;;;;;12.73;2.45;;;;;;;-148.23;100.00;61223.13;4973926;28;20034;-67
2022/03/17 07:24:14;;;;;;;9.45;3.08;;;;;;;-148.23;100.00;61223.13;4957156;28;20089;-67
2022/03/17 07:26:40;;;;;;;11.90;2.45;;;;;;;-148.23;100.00;61223.13;4977704;28;20031;-67
2022/03/17 07:29:06;;;;;;;13.18;3.95;;;;;;;-148.23;100.00;61223.13;4978362;28;20038;-67
2022/03/17 07:31:32;;;;;;;8.65;3.17;;;;;;;-148.23;100.00;61223.13;4976553;28;20030;-67
2022/03/17 07:33:59;;;;;;;8.07;2.45;;;;;;;-148.23;100.00;61223.13;4977974;28;20077;-67
2022/03/17 07:36:25;;;;;;;15.77;3.28;;;;;;;-148.23;100.00;61223.13;4978312;28;20565;-67
2022/03/17 07:38:50;;;;;;;18.08;3.03;;;;;;;-148.23;100.00;61223.13;4962187;28;20170;-67
2022/03/17 07:41:16;;;;;;;13.95;2.20;;;;;;;-148.23;100.00;61223.13;4974401;28;20030;-67
2022/03/17 07:43:43;;;;;;;8.70;2.17;;;;;;;-148.23;100.00;61223.13;4974149;28;20058;-67
2022/03/17 07:46:09;;;;;;;12.68;2.63;;;;;;;-148.23;100.00;61223.13;4978088;28;20037;-67
2022/03/17 07:48:34;;;;;;;10.52;2.38;;;;;;;-148.23;100.00;61223.13;4975746;28;20038;-68
2022/03/17 07:50:59;;;;;;;12.05;2.38;;;;;;;-148.23;100.00;61223.13;4968741;28;20473;-66
2022/03/17 07:53:25;;;;;;;16.00;2.20;;;;;;;-148.23;100.00;61223.13;4982125;28;20057;-66
2022/03/17 07:55:55;;;;;;;10.77;2.75;;;;;;;-148.23;100.00;61223.13;4976270;28;20106;-67
2022/03/17 07:58:24;;;;;;;12.93;2.40;;;;;;;-148.23;100.00;61223.13;4979237;28;20050;-67
2022/03/17 08:00:54;;;;;;;12.77;2.15;;;;;;;-148.23;100.00;61223.13;4983459;28;20026;-66
2022/03/17 08:03:20;;;;;;;17.48;1.92;;;;;;;-148.23;100.00;61223.13;4981182;28;20497;-67
2022/03/17 08:05:48;;;;;;;18.52;2.50;;;;;;;-148.23;100.00;61223.13;4975583;28;20034;-67
2022/03/17 08:08:14;;;;;;;15.52;3.03;;;;;;;-148.23;100.00;61223.13;4980561;28;20360;-68
2022/03/17 08:10:39;;;;;;;20.90;2.20;;;;;;;-148.23;100.00;61223.13;4976570;28;20104;-67
2022/03/17 08:13:06;;;;;;;12.45;1.90;;;;;;;-148.23;100.00;61223.13;4962869;28;20034;-67
2022/03/17 08:15:31;;;;;;;12.23;2.00;;;;;;;-148.23;100.00;61223.13;4978929;28;20121;-66
2022/03/17 08:17:56;;;;;;;7.05;1.83;;;;;;;-148.23;100.00;61223.13;4972864;28;20575;-68
2022/03/17 08:20:22;;;;;;;12.38;2.47;;;;;;;-148.23;100.00;61223.13;4974063;28;20046;-68
2022/03/17 08:22:49;;;;;;;16.48;3.35;;;;;;;-148.23;100.00;61223.13;4981883;28;20451;-68
2022/03/17 08:25:15;;;;;;;8.55;1.92;;;;;;;-148.23;100.00;61223.13;4973759;28;20038;-67
2022/03/17 08:27:40;;;;;;;12.27;2.40;;;;;;;-148.23;100.00;61223.13;4979798;28;20054;-66
2022/03/17 08:30:06;;;;;;;18.33;2.22;;;;;;;-148.23;100.00;61223.13;4974241;28;20117;-67
2022/03/17 08:32:31;;;;;;;17.60;1.95;;;;;;;-148.23;100.00;61223.13;4978318;28;20037;-67
2022/03/17 08:34:57;;;;;;;18.95;2.85;;;;;;;-148.23;100.00;61223.13;4976061;28;20061;-68
2022/03/17 08:37:22;;;;;;;16.48;3.05;;;;;;;-148.23;100.00;61223.13;4977369;28;20038;-67
2022/03/17 08:39:48;;;;;;;18.98;3.17;;;;;;;-148.23;100.00;61223.13;4980140;28;20034;-68
2022/03/17 08:42:14;;;;;;;8.95;3.25;;;;;;;-148.23;100.00;61223.13;4978627;28;20469;-67
2022/03/17 08:44:39;;;;;;;20.27;2.65;;;;;;;-148.23;100.00;61223.13;4985374;28;20037;-68
2022/03/17 08:49:48;;;;;;;14.35;2.70;;;;;;;-148.23;100.00;61223.13;4978162;28;20551;-67
2022/03/17 08:52:14;;;;;;;13.80;3.55;;;;;;;-148.23;100.00;61223.13;4980508;28;20409;-67
2022/03/17 08:54:39;;;;;;;18.88;5.00;;;;;;;-148.23;100.00;61223.13;4977069;28;20046;-67
2022/03/17 08:57:04;;;;;;;13.30;3.83;;;;;;;-148.23;100.00;61223.13;4972283;28;20199;-66
2022/03/17 08:59:31;;;;;;;13.77;3.28;;;;;;;-148.23;100.00;61223.13;4974265;28;20366;-67
2022/03/17 09:01:58;;;;;;;17.58;4.53;;;;;;;-148.23;100.00;61223.13;4963260;28;20117;-67
2022/03/17 09:04:23;;;;;;;29.00;5.15;;;;;;;-148.23;100.00;61223.13;4974859;28;20054;-68
2022/03/17 09:06:49;;;;;;;15.25;2.97;;;;;;;-148.23;100.00;61223.13;4961444;28;20120;-68
2022/03/17 09:09:14;;;;;;;13.73;3.15;;;;;;;-148.23;100.00;61223.13;4970076;28;20503;-66
2022/03/17 09:11:39;;;;;;;14.05;3.42;;;;;;;-148.23;100.00;61223.13;4958941;28;20057;-67
2022/03/17 09:14:07;;;;;;;10.75;2.72;;;;;;;-148.23;100.00;61223.13;4974408;28;20118;-67
2022/03/17 09:16:33;;;;;;;12.70;2.20;;;;;;;-148.23;100.00;61223.13;4980723;28;20034;-67
2022/03/17 09:18:58;;;;;;;11.68;2.22;;;;;;;-148.23;100.00;61223.13;4978046;28;20310;-66
2022/03/17 09:21:25;;;;;;;13.55;2.53;;;;;;;-148.23;100.00;61223.13;4959699;28;20034;-67
2022/03/17 09:23:51;;;;;;;13.60;3.08;;;;;;;-148.23;100.00;61223.13;4977484;28;20150;-67
2022/03/17 09:26:16;;;;;;;18.08;2.47;;;;;;;-148.23;100.00;61223.13;4974098;28;20034;-67
2022/03/17 09:28:43;;;;;;;13.90;2.85;;;;;;;-148.23;100.00;61223.13;4976790;28;20022;-68
2022/03/17 09:31:09;;;;;;;14.82;2.95;;;;;;;-148.23;100.00;61223.13;4978518;28;20125;-68
2022/03/17 09:33:34;;;;;;;13.55;2.40;;;;;;;-148.23;100.00;61223.13;4973457;28;20038;-67
2022/03/17 09:36:00;;;;;;;15.95;3.33;;;;;;;-148.23;100.00;61223.13;4980331;28;20260;-68
2022/03/17 09:38:26;;;;;;;11.98;2.70;;;;;;;-148.23;100.00;61223.13;4980207;28;20026;-68
2022/03/17 09:40:51;;;;;;;16.15;3.63;;;;;;;-148.23;100.00;61223.13;4977334;28;20041;-68
2022/03/17 09:43:21;;;;;;;14.88;3.60;;;;;;;-148.23;100.00;61223.13;4972597;28;20038;-68
2022/03/17 09:45:51;;;;;;;14.55;5.95;;;;;;;-148.23;100.00;61223.13;4981091;28;20058;-67
2022/03/17 09:48:18;;;;;;;14.15;8.10;;;;;;;-148.23;100.00;61223.13;4975864;28;20031;-67
2022/03/17 09:50:43;;;;;;;87.32;35.42;;;;;;;-148.23;100.00;61223.13;4975803;28;20037;-68
2022/03/17 09:53:09;;;;;;;91.40;39.65;;;;;;;-148.23;100.00;61223.13;4991370;28;20417;-68
2022/03/17 09:55:35;;;;;;;25.55;5.20;;;;;;;-148.23;100.00;61223.13;4979210;28;20032;-67
2022/03/17 09:58:02;;;;;;;21.42;7.93;;;;;;;-148.23;100.00;61223.13;4977404;28;20023;-66
2022/03/17 10:00:47;;;;;;;17.10;5.95;;;;;;;-148.23;100.00;61223.13;4976041;28;20045;-67
2022/03/17 10:03:13;;;;;;;12.23;5.18;;;;;;;-148.23;100.00;61223.13;4974480;28;20050;-67
2022/03/17 10:05:39;;;;;;;17.83;5.07;;;;;;;-148.23;100.00;61223.13;4972405;28;20081;-67
2022/03/17 10:08:04;;;;;;;15.93;3.40;;;;;;;-148.23;100.00;61223.13;4974396;28;20117;-67
2022/03/17 10:10:37;;;;;;;12.77;4.88;;;;;;;-148.23;100.00;61223.13;4976644;28;20118;-67
2022/03/17 10:13:25;;;;;;;14.57;4.72;;;;;;;-148.23;100.00;61223.13;4975928;28;20076;-67
2022/03/17 10:16:10;;;;;;;19.88;3.55;;;;;;;-148.23;100.00;61223.13;4975466;28;20398;-67
2022/03/17 10:18:37;;;;;;;11.20;3.53;;;;;;;-148.23;100.00;61223.13;4978839;28;20386;-66
2022/03/17 10:21:12;;;;;;;14.43;5.13;;;;;;;-148.23;100.00;61223.13;4976399;28;20030;-67
2022/03/17 10:23:48;;;;;;;15.18;5.22;;;;;;;-148.23;100.00;61223.13;4976703;28;20532;-67
2022/03/17 10:26:43;;;;;;;8.85;4.22;;;;;;;-148.23;100.00;61223.13;4975138;28;20033;-67
2022/03/17 10:29:13;;;;;;;25.48;8.45;;;;;;;-148.23;100.00;61223.13;4969439;28;20038;-66
2022/03/17 10:31:49;;;;;;;12.73;2.83;;;;;;;-148.23;100.00;61223.13;4956461;28;20061;-67
2022/03/17 10:34:14;;;;;;;18.73;2.60;;;;;;;-148.23;100.00;61223.13;4978205;28;20138;-67
2022/03/17 10:36:40;;;;;;;14.50;3.33;;;;;;;-148.23;100.00;61223.13;4978416;28;20465;-67
2022/03/17 10:39:11;;;;;;;7.07;2.72;;;;;;;-148.23;100.00;61223.13;4977111;28;20563;-67
2022/03/17 10:41:41;;;;;;;12.20;3.05;;;;;;;-148.23;100.00;61223.13;4982236;28;20038;-66
2022/03/17 10:44:10;;;;;;;10.27;2.50;;;;;;;-148.23;100.00;61223.13;4976500;28;20026;-67
2022/03/17 10:46:35;;;;;;;9.80;2.15;;;;;;;-148.23;100.00;61223.13;4974046;28;20530;-67
2022/03/17 10:49:05;;;;;;;9.63;2.00;;;;;;;-148.23;100.00;61223.13;4972116;28;20026;-67
2022/03/17 10:51:37;;;;;;;9.10;2.53;;;;;;;-148.23;100.00;61223.13;4973893;28;20031;-67
2022/03/17 10:54:10;;;;;;;8.10;2.30;;;;;;;-148.23;100.00;61223.13;4972049;28;20049;-67
2022/03/17 10:56:39;;;;;;;24.65;10.30;;;;;;;-148.23;100.00;61223.13;4975911;28;20108;-66
2022/03/17 10:59:07;;;;;;;27.17;18.98;;;;;;;-148.23;100.00;61223.13;4976392;28;20054;-66
2022/03/17 11:01:36;;;;;;;17.83;8.05;;;;;;;-148.23;100.00;61223.13;4972316;28;20041;-67
2022/03/17 11:04:03;;;;;;;11.05;3.42;;;;;;;-148.23;100.00;61223.13;4976262;28;20108;-67
2022/03/17 11:06:28;;;;;;;8.32;2.63;;;;;;;-148.23;100.00;61223.13;4975262;28;20073;-67
2022/03/17 11:08:55;;;;;;;7.22;2.60;;;;;;;-148.23;100.00;61223.13;4981587;28;20109;-67